Terminal Aerodrome Forecast
Issued by NWS

Current Version | Previous Version | Text Only | Print | Product List | Glossary Off
Versions: 1 2 3 4 5 6 7 8 9 10 11 12 13 14 15 16 17 18 19 20 21 22 23 24 25 26 27 28 29 30 31 32 33 34 35 36 37 38 39

000
FTUS41 KRNK 300520
TAFLWB
TAF
KLWB 300520Z 3006/3106 30008G16KT 5SM -SHRASNPL BR BKN012 OVC025
     FM300700 30009G17KT 4SM -SHSN BR OVC012
      TEMPO 3007/3011 1SM -SHSN
     FM301400 28017G27KT P6SM -SHSN OVC015
     FM301800 29018G28KT P6SM -SHSN OVC018
     FM302200 30008G16KT P6SM BKN023
     FM310200 29007KT P6SM SCT023=

USA.gov is the U.S. government's official web portal to all federal, state and local government web resources and services.